createdAt,value
2017-11-26T00:02:08.135Z,95882.34
2017-11-26T00:04:35.694Z,95885.38
2017-11-26T00:07:03.241Z,95888.72
2017-11-26T00:09:30.773Z,95892.92
2017-11-26T00:11:58.333Z,95897.28
2017-11-26T00:14:25.937Z,95899.73
2017-11-26T00:16:53.527Z,95898.45
2017-11-26T00:19:21.123Z,95891.82
2017-11-26T00:21:48.682Z,95888.27
2017-11-26T00:24:16.239Z,95894.50
2017-11-26T00:26:43.819Z,95902.16
2017-11-26T00:29:11.638Z,95916.47
2017-11-26T00:31:39.255Z,95918.53
2017-11-26T00:34:06.850Z,95909.77
2017-11-26T00:36:34.439Z,95913.58
2017-11-26T00:39:02.217Z,95907.87
2017-11-26T00:41:29.753Z,95908.70
2017-11-26T00:43:57.315Z,95923.98
2017-11-26T00:46:24.941Z,95914.86
2017-11-26T00:48:52.499Z,95927.23
2017-11-26T00:51:20.043Z,95934.05
2017-11-26T00:53:47.618Z,95939.47
2017-11-26T00:56:15.168Z,95945.66
2017-11-26T00:58:42.732Z,95946.42
2017-11-26T01:01:10.344Z,95949.31
2017-11-26T01:03:37.897Z,95952.86
2017-11-26T01:06:05.483Z,95948.86
2017-11-26T01:08:33.056Z,95951.00
2017-11-26T01:11:00.611Z,95950.62
2017-11-26T01:13:28.168Z,95944.13
2017-11-26T01:15:55.775Z,95955.34
2017-11-26T01:18:23.322Z,95951.05
2017-11-26T01:20:50.910Z,95950.98
2017-11-26T01:23:18.481Z,95960.48
2017-11-26T01:25:46.073Z,95965.92
2017-11-26T01:28:13.676Z,95969.00
2017-11-26T01:30:41.227Z,95963.89
2017-11-26T01:33:08.923Z,95955.76
2017-11-26T01:35:37.087Z,95949.19
2017-11-26T01:38:04.669Z,95956.20
2017-11-26T01:40:32.267Z,95959.73
2017-11-26T01:42:59.825Z,95960.49
2017-11-26T01:45:27.388Z,95966.14
2017-11-26T01:47:54.963Z,95963.66
2017-11-26T01:50:22.521Z,95950.45
2017-11-26T01:52:50.096Z,95944.61
2017-11-26T01:55:17.709Z,95944.73
2017-11-26T01:57:45.381Z,95960.49
2017-11-26T02:00:12.976Z,95957.41
2017-11-26T02:02:40.582Z,95960.91
2017-11-26T02:05:08.195Z,95962.27
2017-11-26T02:07:35.755Z,95969.39
2017-11-26T02:10:03.375Z,95972.15
2017-11-26T02:12:31.013Z,95964.50
2017-11-26T02:14:58.591Z,95975.00
2017-11-26T02:17:26.150Z,95980.22
2017-11-26T02:19:53.766Z,95975.92
2017-11-26T02:22:21.391Z,95979.89
2017-11-26T02:24:48.959Z,95991.93
2017-11-26T02:27:16.540Z,95997.36
2017-11-26T02:29:44.133Z,95996.41
2017-11-26T02:32:23.366Z,96003.01
2017-11-26T02:35:02.607Z,96004.05
2017-11-26T02:37:30.170Z,96003.16
2017-11-26T02:39:57.730Z,96003.97
2017-11-26T02:42:25.332Z,96002.13
2017-11-26T02:44:52.914Z,96014.36
2017-11-26T02:47:20.870Z,96011.85
2017-11-26T02:49:48.907Z,96011.66
2017-11-26T02:52:16.509Z,96014.90
2017-11-26T02:54:44.076Z,96019.66
2017-11-26T02:57:11.658Z,96020.61
2017-11-26T02:59:39.230Z,96024.36
2017-11-26T03:02:06.824Z,96015.00
2017-11-26T03:04:34.756Z,96011.59
2017-11-26T03:07:02.403Z,96014.80
2017-11-26T03:09:29.958Z,96015.75
2017-11-26T03:11:57.645Z,96012.00
2017-11-26T03:14:25.298Z,96008.22
2017-11-26T03:16:53.256Z,95998.97
2017-11-26T03:19:20.841Z,96001.31
2017-11-26T03:21:48.409Z,96011.64
2017-11-26T03:24:16.068Z,96010.94
2017-11-26T03:26:43.683Z,96022.87
2017-11-26T03:29:11.468Z,96044.52
2017-11-26T03:31:39.049Z,96049.41
2017-11-26T03:34:06.634Z,96063.17
2017-11-26T03:36:34.212Z,96069.34
2017-11-26T03:39:01.772Z,96078.86
2017-11-26T03:41:29.359Z,96085.63
2017-11-26T03:43:58.286Z,96084.14
2017-11-26T03:46:25.982Z,96082.64
2017-11-26T03:48:53.601Z,96088.54
2017-11-26T03:51:21.161Z,96091.08
2017-11-26T03:53:48.747Z,96092.26
2017-11-26T03:56:16.313Z,96105.30
2017-11-26T03:58:43.896Z,96112.12
2017-11-26T04:01:11.983Z,96102.58
2017-11-26T04:03:39.590Z,96105.45
2017-11-26T04:06:07.139Z,96102.38
2017-11-26T04:08:34.683Z,96115.98
2017-11-26T04:11:02.270Z,96132.40
2017-11-26T04:13:30.188Z,96122.00
2017-11-26T04:15:57.961Z,96121.41
2017-11-26T04:18:25.555Z,96124.78
2017-11-26T04:20:53.106Z,96115.77
2017-11-26T04:23:20.675Z,96123.88
2017-11-26T04:25:48.276Z,96135.94
2017-11-26T04:28:15.912Z,96134.18
2017-11-26T04:30:43.491Z,96135.98
2017-11-26T04:33:11.207Z,96135.03
2017-11-26T04:35:38.760Z,96130.88
2017-11-26T04:38:06.366Z,96135.80
2017-11-26T04:40:33.935Z,96138.06
2017-11-26T04:43:01.535Z,96134.36
2017-11-26T04:45:29.104Z,96130.15
2017-11-26T04:47:56.652Z,96125.50
2017-11-26T04:50:24.293Z,96134.13
2017-11-26T04:52:51.842Z,96143.66
2017-11-26T04:55:19.413Z,96152.24
2017-11-26T04:57:46.980Z,96154.52
2017-11-26T05:00:14.556Z,96167.61
2017-11-26T05:02:42.206Z,96181.09
2017-11-26T05:05:10.119Z,96181.72
2017-11-26T05:07:37.698Z,96181.44
2017-11-26T05:10:05.275Z,96176.84
2017-11-26T05:12:32.871Z,96194.03
2017-11-26T05:15:00.417Z,96200.38
2017-11-26T05:17:27.990Z,96198.02
2017-11-26T05:19:55.556Z,96200.51
2017-11-26T05:22:23.100Z,96200.62
2017-11-26T05:24:50.681Z,96200.38
2017-11-26T05:27:18.240Z,96205.94
2017-11-26T05:29:45.811Z,96207.63
2017-11-26T05:32:13.487Z,96213.87
2017-11-26T05:34:41.111Z,96206.94
2017-11-26T05:37:09.037Z,96216.66
2017-11-26T05:39:36.595Z,96219.36
2017-11-26T05:42:04.180Z,96216.75
2017-11-26T05:44:31.710Z,96215.05
2017-11-26T05:46:59.250Z,96198.50
2017-11-26T05:49:26.918Z,96212.42
2017-11-26T05:51:54.494Z,96213.49
2017-11-26T05:54:22.880Z,96215.08
2017-11-26T05:56:50.472Z,96217.17
2017-11-26T05:59:18.020Z,96213.03
2017-11-26T06:01:45.566Z,96209.38
2017-11-26T06:04:13.158Z,96218.55
2017-11-26T06:06:40.710Z,96232.88
2017-11-26T06:09:08.290Z,96244.48
2017-11-26T06:11:35.913Z,96243.95
2017-11-26T06:14:03.487Z,96247.17
2017-11-26T06:16:31.063Z,96250.16
2017-11-26T06:18:58.628Z,96251.65
2017-11-26T06:21:26.325Z,96254.17
2017-11-26T06:23:53.876Z,96257.11
2017-11-26T06:26:22.484Z,96261.63
2017-11-26T06:28:50.037Z,96265.97
2017-11-26T06:31:17.589Z,96265.03
2017-11-26T06:33:45.213Z,96270.23
2017-11-26T06:36:12.775Z,96275.23
2017-11-26T06:38:40.384Z,96274.83
2017-11-26T06:41:08.416Z,96279.81
2017-11-26T06:43:38.138Z,96287.42
2017-11-26T06:46:05.726Z,96291.16
2017-11-26T06:48:33.308Z,96302.53
2017-11-26T06:51:00.866Z,96305.78
2017-11-26T06:53:28.435Z,96316.81
2017-11-26T06:55:56.032Z,96323.91
2017-11-26T06:58:23.977Z,96320.58
2017-11-26T07:00:51.567Z,96323.11
2017-11-26T07:03:19.143Z,96327.41
2017-11-26T07:05:46.703Z,96324.51
2017-11-26T07:08:14.272Z,96328.44
2017-11-26T07:10:41.844Z,96334.33
2017-11-26T07:13:11.418Z,96333.91
2017-11-26T07:15:38.998Z,96337.39
2017-11-26T07:18:06.703Z,96340.05
2017-11-26T07:20:34.296Z,96346.57
2017-11-26T07:23:01.907Z,96346.98
2017-11-26T07:25:29.504Z,96350.02
2017-11-26T07:27:57.070Z,96346.42
2017-11-26T07:30:24.779Z,96348.77
2017-11-26T07:32:52.316Z,96353.11
2017-11-26T07:35:19.878Z,96348.59
2017-11-26T07:37:47.450Z,96351.44
2017-11-26T07:40:15.071Z,96349.03
2017-11-26T07:42:42.680Z,96359.79
2017-11-26T07:45:10.429Z,96365.94
2017-11-26T07:47:39.003Z,96365.16
2017-11-26T07:50:06.711Z,96374.89
2017-11-26T07:52:34.264Z,96370.14
2017-11-26T07:55:01.839Z,96380.64
2017-11-26T07:57:29.418Z,96383.22
2017-11-26T07:59:56.998Z,96381.42
2017-11-26T08:02:24.573Z,96391.56
2017-11-26T08:04:52.156Z,96385.81
2017-11-26T08:07:19.739Z,96390.77
2017-11-26T08:09:47.370Z,96390.43
2017-11-26T08:12:14.925Z,96396.78
2017-11-26T08:14:42.478Z,96402.38
2017-11-26T08:17:10.369Z,96409.28
2017-11-26T08:19:37.985Z,96405.81
2017-11-26T08:24:39.421Z,96415.19
2017-11-26T08:27:07.008Z,96411.72
2017-11-26T08:29:35.628Z,96419.33
2017-11-26T08:32:03.177Z,96427.90
2017-11-26T08:34:30.741Z,96434.16
2017-11-26T08:36:58.302Z,96435.90
2017-11-26T08:39:25.852Z,96446.77
2017-11-26T08:41:53.467Z,96448.41
2017-11-26T08:44:21.247Z,96440.60
2017-11-26T08:46:48.845Z,96445.12
2017-11-26T08:49:16.481Z,96447.03
2017-11-26T08:51:44.141Z,96455.85
2017-11-26T08:54:11.756Z,96461.33
2017-11-26T08:56:39.318Z,96462.94
2017-11-26T08:59:06.927Z,96468.17
2017-11-26T09:01:34.563Z,96472.66
2017-11-26T09:04:02.128Z,96471.22
2017-11-26T09:09:29.069Z,96467.94
2017-11-26T09:11:56.863Z,96472.83
2017-11-26T09:14:24.444Z,96465.58
2017-11-26T09:16:52.012Z,96473.66
2017-11-26T09:19:19.639Z,96474.19
2017-11-26T09:21:47.216Z,96464.58
2017-11-26T09:24:16.468Z,96473.77
2017-11-26T09:26:44.141Z,96485.19
2017-11-26T09:29:12.139Z,96475.84
2017-11-26T09:31:39.694Z,96477.16
2017-11-26T09:34:07.259Z,96479.55
2017-11-26T09:36:34.887Z,96486.80
2017-11-26T09:39:02.451Z,96489.16
2017-11-26T09:41:30.087Z,96487.89
2017-11-26T09:43:58.069Z,96490.28
2017-11-26T09:46:26.000Z,96490.02
2017-11-26T09:48:53.568Z,96488.11
2017-11-26T09:51:21.431Z,96483.63
2017-11-26T09:53:49.048Z,96486.95
2017-11-26T09:56:17.916Z,96490.26
2017-11-26T09:58:45.877Z,96495.61
2017-11-26T10:01:13.562Z,96483.70
2017-11-26T10:03:41.182Z,96482.91
2017-11-26T10:06:08.811Z,96486.17
2017-11-26T10:08:36.439Z,96484.58
2017-11-26T10:11:04.099Z,96487.52
2017-11-26T10:13:31.690Z,96479.34
2017-11-26T10:15:59.244Z,96476.70
2017-11-26T10:18:26.828Z,96481.59
2017-11-26T10:20:54.399Z,96480.31
2017-11-26T10:23:22.025Z,96484.30
2017-11-26T10:25:49.613Z,96473.38
2017-11-26T10:28:17.193Z,96474.11
2017-11-26T10:30:44.776Z,96478.61
2017-11-26T10:33:12.748Z,96481.34
2017-11-26T10:35:40.327Z,96490.94
2017-11-26T10:38:07.928Z,96492.16
2017-11-26T10:40:35.748Z,96494.58
2017-11-26T10:43:03.310Z,96490.15
2017-11-26T10:45:30.893Z,96483.75
2017-11-26T10:47:58.486Z,96492.78
2017-11-26T10:50:26.033Z,96495.91
2017-11-26T10:52:53.591Z,96500.22
2017-11-26T10:55:23.119Z,96497.05
2017-11-26T10:57:50.715Z,96487.11
2017-11-26T11:00:18.319Z,96497.22
2017-11-26T11:02:45.962Z,96491.28
2017-11-26T11:05:14.373Z,96501.11
2017-11-26T11:07:41.976Z,96502.30
2017-11-26T11:10:09.569Z,96504.55
2017-11-26T11:12:37.189Z,96500.44
2017-11-26T11:15:04.786Z,96500.65
2017-11-26T11:17:32.335Z,96504.69
2017-11-26T11:19:59.919Z,96502.39
2017-11-26T11:22:29.543Z,96501.31
2017-11-26T11:24:57.110Z,96495.84
2017-11-26T11:27:24.798Z,96503.14
2017-11-26T11:29:52.656Z,96500.69
2017-11-26T11:32:20.204Z,96495.67
2017-11-26T11:34:47.782Z,96498.65
2017-11-26T11:37:16.156Z,96497.66
2017-11-26T11:39:43.733Z,96505.91
2017-11-26T11:42:11.341Z,96505.41
2017-11-26T11:44:38.945Z,96502.53
2017-11-26T11:47:06.518Z,96512.69
2017-11-26T11:49:35.209Z,96504.88
2017-11-26T11:52:02.795Z,96514.89
2017-11-26T11:54:30.555Z,96519.08
2017-11-26T11:56:58.143Z,96512.30
2017-11-26T11:59:27.339Z,96511.34
2017-11-26T12:01:54.904Z,96511.63
2017-11-26T12:04:23.367Z,96513.50
2017-11-26T12:06:50.970Z,96520.52
2017-11-26T12:09:18.523Z,96516.09
2017-11-26T12:11:46.131Z,96515.20
2017-11-26T12:14:13.806Z,96520.00
2017-11-26T12:16:41.412Z,96517.06
2017-11-26T12:19:09.448Z,96521.70
2017-11-26T12:21:37.123Z,96506.08
2017-11-26T12:24:04.738Z,96520.14
2017-11-26T12:26:32.370Z,96523.61
2017-11-26T12:28:59.957Z,96524.52
2017-11-26T12:31:29.174Z,96523.17
2017-11-26T12:33:56.800Z,96535.80
2017-11-26T12:36:25.285Z,96533.37
2017-11-26T12:38:52.944Z,96531.96
2017-11-26T12:41:20.781Z,96538.68
2017-11-26T12:43:48.337Z,96542.16
2017-11-26T12:46:16.034Z,96537.84
2017-11-26T12:48:43.584Z,96543.19
2017-11-26T12:51:11.533Z,96540.37
2017-11-26T12:53:39.137Z,96539.41
2017-11-26T12:56:06.733Z,96539.39
2017-11-26T12:58:34.318Z,96538.00
2017-11-26T13:01:01.910Z,96539.36
2017-11-26T13:03:29.463Z,96548.67
2017-11-26T13:05:57.055Z,96550.42
2017-11-26T13:08:24.628Z,96556.06
2017-11-26T13:10:52.242Z,96555.06
2017-11-26T13:13:19.866Z,96563.34
2017-11-26T13:15:47.454Z,96557.14
2017-11-26T13:18:15.227Z,96563.05
2017-11-26T13:20:42.811Z,96562.42
2017-11-26T13:23:12.009Z,96564.52
2017-11-26T13:25:39.667Z,96568.17
2017-11-26T13:28:07.268Z,96570.77
2017-11-26T13:30:35.629Z,96575.02
2017-11-26T13:33:03.233Z,96577.31
2017-11-26T13:35:30.793Z,96569.88
2017-11-26T13:37:58.420Z,96573.66
2017-11-26T13:40:26.034Z,96573.76
2017-11-26T13:42:53.598Z,96572.74
2017-11-26T13:45:21.211Z,96576.69
2017-11-26T13:47:48.784Z,96575.22
2017-11-26T13:50:16.371Z,96584.70
2017-11-26T13:52:44.002Z,96584.09
2017-11-26T13:55:11.516Z,96587.03
2017-11-26T13:57:39.048Z,96581.55
2017-11-26T14:00:06.630Z,96592.89
2017-11-26T14:02:34.158Z,96585.64
2017-11-26T14:05:01.775Z,96589.92
2017-11-26T14:07:46.944Z,96591.00
2017-11-26T14:10:14.601Z,96595.06
2017-11-26T14:12:42.189Z,96593.58
2017-11-26T14:15:09.853Z,96588.25
2017-11-26T14:17:37.510Z,96589.10
2017-11-26T14:20:05.048Z,96592.47
2017-11-26T14:22:32.553Z,96590.66
2017-11-26T14:25:06.071Z,96588.67
2017-11-26T14:27:33.623Z,96584.16
2017-11-26T14:30:01.192Z,96591.83
2017-11-26T14:32:28.771Z,96590.64
2017-11-26T14:34:56.366Z,96586.69
2017-11-26T14:37:23.982Z,96593.30
2017-11-26T14:39:51.616Z,96601.39
2017-11-26T14:42:19.238Z,96601.03
2017-11-26T14:44:46.844Z,96607.22
2017-11-26T14:47:14.433Z,96600.24
2017-11-26T14:49:42.044Z,96600.11
2017-11-26T14:52:09.605Z,96599.22
2017-11-26T14:54:37.177Z,96603.33
2017-11-26T14:57:04.788Z,96598.44
2017-11-26T14:59:32.411Z,96596.80
2017-11-26T15:01:59.978Z,96592.05
2017-11-26T15:04:27.619Z,96592.86
2017-11-26T15:06:55.211Z,96593.38
2017-11-26T15:09:22.751Z,96591.59
2017-11-26T15:11:51.047Z,96586.68
2017-11-26T15:14:18.626Z,96599.02
2017-11-26T15:16:46.185Z,96599.70
2017-11-26T15:19:14.261Z,96593.50
2017-11-26T15:21:41.887Z,96605.59
2017-11-26T15:24:09.449Z,96608.43
2017-11-26T15:26:37.432Z,96613.55
2017-11-26T15:29:07.041Z,96614.75
2017-11-26T15:31:35.966Z,96605.91
2017-11-26T15:34:03.553Z,96610.11
2017-11-26T15:36:31.148Z,96620.16
2017-11-26T15:38:59.148Z,96624.49
2017-11-26T15:41:26.995Z,96624.63
2017-11-26T15:43:54.569Z,96617.57
2017-11-26T15:46:22.153Z,96620.50
2017-11-26T15:48:49.986Z,96615.45
2017-11-26T15:51:17.585Z,96622.92
2017-11-26T15:53:45.252Z,96629.24
2017-11-26T15:56:12.943Z,96633.71
2017-11-26T15:58:40.519Z,96635.47
2017-11-26T16:01:08.710Z,96636.94
2017-11-26T16:03:36.274Z,96626.28
2017-11-26T16:06:03.841Z,96631.00
2017-11-26T16:08:31.442Z,96633.81
2017-11-26T16:10:58.997Z,96631.13
2017-11-26T16:13:26.609Z,96635.82
2017-11-26T16:15:54.387Z,96638.59
2017-11-26T16:18:23.184Z,96631.70
2017-11-26T16:20:50.931Z,96641.81
2017-11-26T16:23:19.133Z,96648.06
2017-11-26T16:25:47.031Z,96648.37
2017-11-26T16:28:15.308Z,96654.34
2017-11-26T16:30:42.967Z,96651.38
2017-11-26T16:33:10.534Z,96652.11
2017-11-26T16:35:39.114Z,96654.28
2017-11-26T16:38:06.759Z,96648.67
2017-11-26T16:40:34.308Z,96644.83
2017-11-26T16:43:01.909Z,96650.95
2017-11-26T16:45:29.525Z,96647.94
2017-11-26T16:47:57.085Z,96652.58
2017-11-26T16:50:24.668Z,96659.50
2017-11-26T16:52:52.230Z,96654.42
2017-11-26T16:55:19.791Z,96655.55
2017-11-26T16:57:47.343Z,96663.35
2017-11-26T17:00:14.861Z,96673.81
2017-11-26T17:02:42.431Z,96671.56
2017-11-26T17:05:10.166Z,96675.69
2017-11-26T17:07:37.882Z,96676.63
2017-11-26T17:10:05.447Z,96681.16
2017-11-26T17:12:33.013Z,96678.38
2017-11-26T17:15:00.574Z,96675.75
2017-11-26T17:17:28.260Z,96674.89
2017-11-26T17:19:55.844Z,96681.55
2017-11-26T17:22:24.260Z,96684.66
2017-11-26T17:24:51.830Z,96689.87
2017-11-26T17:27:19.377Z,96683.56
2017-11-26T17:29:46.940Z,96685.86
2017-11-26T17:32:14.506Z,96690.02
2017-11-26T17:34:42.057Z,96687.07
2017-11-26T17:37:09.987Z,96682.84
2017-11-26T17:39:37.526Z,96682.27
2017-11-26T17:42:05.064Z,96679.53
2017-11-26T17:44:32.730Z,96682.34
2017-11-26T17:47:00.308Z,96678.92
2017-11-26T17:49:28.095Z,96685.47
2017-11-26T17:51:55.882Z,96685.05
2017-11-26T17:59:47.269Z,96688.51
2017-11-26T18:02:14.815Z,96690.42
2017-11-26T18:04:42.343Z,96694.52
2017-11-26T18:07:10.217Z,96701.45
2017-11-26T18:09:37.784Z,96688.02
2017-11-26T18:12:05.536Z,96686.98
2017-11-26T18:14:33.251Z,96687.22
2017-11-26T18:17:00.820Z,96687.45
2017-11-26T18:19:28.429Z,96692.38
2017-11-26T18:21:56.138Z,96697.02
2017-11-26T18:24:23.689Z,96691.49
2017-11-26T18:26:51.266Z,96697.63
2017-11-26T18:29:18.879Z,96695.12
2017-11-26T18:31:46.439Z,96703.49
2017-11-26T18:34:14.027Z,96706.54
2017-11-26T18:36:41.586Z,96713.96
2017-11-26T18:39:09.492Z,96723.52
2017-11-26T18:41:37.055Z,96714.86
2017-11-26T18:44:04.657Z,96718.59
2017-11-26T18:46:32.197Z,96724.67
2017-11-26T18:48:59.733Z,96725.52
2017-11-26T18:51:27.374Z,96727.19
2017-11-26T18:53:54.909Z,96726.88
2017-11-26T18:56:23.023Z,96723.76
2017-11-26T18:58:50.581Z,96720.75
2017-11-26T19:01:18.187Z,96722.77
2017-11-26T19:03:45.861Z,96722.05
2017-11-26T19:06:13.433Z,96728.02
2017-11-26T19:08:41.015Z,96734.55
2017-11-26T19:11:08.795Z,96733.09
2017-11-26T19:13:36.374Z,96736.09
2017-11-26T19:16:04.000Z,96733.13
2017-11-26T19:18:31.549Z,96737.09
2017-11-26T19:20:59.095Z,96738.73
2017-11-26T19:23:26.657Z,96732.88
2017-11-26T19:25:54.229Z,96736.90
2017-11-26T19:28:21.778Z,96738.84
2017-11-26T19:30:49.322Z,96745.59
2017-11-26T19:33:16.930Z,96749.22
2017-11-26T19:35:44.548Z,96741.75
2017-11-26T19:38:12.123Z,96735.16
2017-11-26T19:40:39.692Z,96726.59
2017-11-26T19:43:07.310Z,96733.32
2017-11-26T19:45:34.861Z,96734.25
2017-11-26T19:48:02.401Z,96736.11
2017-11-26T19:50:30.008Z,96740.16
2017-11-26T19:52:57.551Z,96751.11
2017-11-26T19:55:25.116Z,96753.78
2017-11-26T19:57:52.798Z,96751.41
2017-11-26T20:00:20.331Z,96745.55
2017-11-26T20:02:47.872Z,96745.84
2017-11-26T20:05:15.498Z,96744.84
2017-11-26T20:07:43.086Z,96747.47
2017-11-26T20:10:10.689Z,96747.12
2017-11-26T20:12:38.296Z,96746.28
2017-11-26T20:15:05.910Z,96747.16
2017-11-26T20:17:33.492Z,96751.70
2017-11-26T20:20:01.065Z,96750.22
2017-11-26T20:22:28.645Z,96748.28
2017-11-26T20:24:56.198Z,96748.52
2017-11-26T20:27:23.785Z,96753.94
2017-11-26T20:29:51.346Z,96755.31
2017-11-26T20:32:18.915Z,96755.31
2017-11-26T20:34:46.539Z,96757.41
2017-11-26T20:37:14.129Z,96754.25
2017-11-26T20:39:41.675Z,96753.20
2017-11-26T20:42:09.280Z,96753.37
2017-11-26T20:44:36.823Z,96757.00
2017-11-26T20:47:04.390Z,96761.80
2017-11-26T20:49:32.019Z,96759.66
2017-11-26T20:51:59.567Z,96764.54
2017-11-26T20:54:27.129Z,96752.22
2017-11-26T20:56:54.707Z,96749.76
2017-11-26T20:59:22.269Z,96749.33
2017-11-26T21:01:49.799Z,96750.91
2017-11-26T21:04:17.450Z,96745.30
2017-11-26T21:06:44.945Z,96751.91
2017-11-26T21:09:12.495Z,96746.27
2017-11-26T21:11:40.348Z,96761.59
2017-11-26T21:14:07.916Z,96748.13
2017-11-26T21:16:35.495Z,96748.45
2017-11-26T21:19:03.198Z,96744.70
2017-11-26T21:21:30.743Z,96745.97
2017-11-26T21:23:58.544Z,96736.34
2017-11-26T21:26:26.450Z,96744.92
2017-11-26T21:28:54.003Z,96751.83
2017-11-26T21:31:21.586Z,96748.58
2017-11-26T21:33:49.138Z,96749.57
2017-11-26T21:36:16.685Z,96742.67
2017-11-26T21:38:44.293Z,96749.72
2017-11-26T21:41:12.096Z,96751.73
2017-11-26T21:43:39.665Z,96748.94
2017-11-26T21:46:07.223Z,96757.77
2017-11-26T21:48:34.748Z,96743.14
2017-11-26T21:51:02.811Z,96745.72
2017-11-26T21:53:31.150Z,96736.94
2017-11-26T21:55:58.743Z,96727.05
2017-11-26T21:58:26.287Z,96729.28
2017-11-26T22:00:53.866Z,96731.13
2017-11-26T22:03:21.831Z,96735.60
2017-11-26T22:05:49.418Z,96744.45
2017-11-26T22:08:17.004Z,96747.02
2017-11-26T22:10:44.558Z,96744.22
2017-11-26T22:13:14.037Z,96753.79
2017-11-26T22:15:41.612Z,96760.05
2017-11-26T22:18:09.165Z,96765.73
2017-11-26T22:20:36.711Z,96762.92
2017-11-26T22:23:04.485Z,96768.93
2017-11-26T22:25:32.014Z,96772.67
2017-11-26T22:27:59.547Z,96763.73
2017-11-26T22:30:27.100Z,96757.55
2017-11-26T22:32:54.649Z,96750.83
2017-11-26T22:35:22.920Z,96755.45
2017-11-26T22:37:50.467Z,96760.44
2017-11-26T22:40:18.015Z,96759.91
2017-11-26T22:42:45.585Z,96757.61
2017-11-26T22:45:13.163Z,96750.59
2017-11-26T22:47:40.700Z,96764.44
2017-11-26T22:50:08.237Z,96763.60
2017-11-26T22:52:35.785Z,96761.17
2017-11-26T22:55:03.345Z,96764.44
2017-11-26T22:57:30.884Z,96762.58
2017-11-26T22:59:58.510Z,96765.25
2017-11-26T23:02:26.061Z,96763.73
2017-11-26T23:04:53.587Z,96761.63
2017-11-26T23:07:21.157Z,96755.18
2017-11-26T23:09:48.680Z,96757.69
2017-11-26T23:12:16.307Z,96761.86
2017-11-26T23:14:43.868Z,96757.42
2017-11-26T23:17:12.161Z,96756.88
2017-11-26T23:19:39.698Z,96752.50
2017-11-26T23:22:07.245Z,96750.33
2017-11-26T23:24:34.783Z,96747.86
2017-11-26T23:27:02.617Z,96752.13
2017-11-26T23:29:30.169Z,96758.16
2017-11-26T23:31:57.749Z,96759.06
2017-11-26T23:34:25.315Z,96760.73
2017-11-26T23:36:52.874Z,96757.44
2017-11-26T23:39:20.551Z,96756.73
2017-11-26T23:41:48.128Z,96757.80
2017-11-26T23:44:15.713Z,96755.14
2017-11-26T23:46:43.281Z,96757.38
2017-11-26T23:49:10.922Z,96748.96
2017-11-26T23:51:39.214Z,96743.12
2017-11-26T23:54:06.920Z,96743.00
2017-11-26T23:56:34.496Z,96745.05
2017-11-26T23:59:02.112Z,96736.38
